Em Athens — V7US8 — position and weather

sailwx.info

Track history (hours):
 
Tides and Currents Weather Stations Pressure Air Temp Water Temp Dewpoint Dewpoint Depression Visibility Wind Speed Wind Dir Waves Ship Positions

Em Athens

Last reported at 2016-Jan-14 02:16 UTC. Time now 2016-Feb-08 12:32 UTC.
Position N 26°36' W 014°52'.
Warning: this ship's position is 25 days out of date.

Length 207 m; draft 10.6 m.

Type: Ship (hazmat cat C). MMSI: 538004019.

Date/timePositionNaut miles runAvg speedWind from/ knotsBaromVisibWave heightAir tempDewpointWater temp
2016-Jan-14 02:16N 26°36' W 014°52'1215.8
2016-Jan-14 01:32N 26°45' W 014°43'1515.1
2016-Jan-14 00:33N 26°58' W 014°36'1514.9
2016-Jan-13 23:32N 27°10' W 014°25'1515.3
2016-Jan-13 22:33N 27°22' W 014°15'1515.3
2016-Jan-13 21:33N 27°34' W 014°04'1615.8
2016-Jan-13 20:33N 27°46' W 013°53'1616.0
2016-Jan-13 19:33N 27°59' W 013°42'1716.3
2016-Jan-13 18:33N 28°11' W 013°30'7515.0
2016-Jan-13 13:33N 29°14' W 012°45'4715.1
2016-Jan-13 10:28N 29°54' W 012°16'1415.3
2016-Jan-13 09:33N 30°05' W 012°07'1615.6
2016-Jan-13 08:33N 30°19' W 011°57'1515.2
2016-Jan-13 07:33N 30°31' W 011°48'1914.9
2016-Jan-13 06:19N 30°47' W 011°36'1114.7
2016-Jan-13 05:33N 30°56' W 011°29'1514.8
2016-Jan-13 04:33N 31°09' W 011°20'1514.9
2016-Jan-13 03:33N 31°21' W 011°10'1514.9
2016-Jan-13 02:34N 31°34' W 011°01'1715.2
2016-Jan-13 01:26N 31°48' W 010°50'36014.5
2016-Jan-12 00:30N 35°57' W 005°36'5 0.2
2016-Jan-10 17:18N 35°56' W 005°30'6 7.8
2016-Jan-10 16:33N 35°60' W 005°24'6 6.2
2016-Jan-10 15:33N 36°01' W 005°17'3 3.3
2016-Jan-10 14:33N 36°01' W 005°13'4 0.8
2016-Jan-10 09:14N 35°57' W 005°11'4 6.4
2016-Jan-10 08:33N 35°57' W 005°17'1010.3
2016-Jan-10 07:33N 35°58' W 005°29'8 8.5
2016-Jan-10 06:34N 36°05' W 005°23'2 0.5
2016-Jan-10 03:28N 36°06' W 005°24'0 0.1
2016-Jan-10 00:31N 36°06' W 005°24'0 0.0
2016-Jan-09 23:31N 36°06' W 005°24'0 0.1
2016-Jan-09 22:31N 36°06' W 005°25'0 0.0
2016-Jan-09 21:31N 36°06' W 005°25'0 0.0
2016-Jan-09 20:31N 36°06' W 005°25'0 0.0
2016-Jan-09 19:31N 36°06' W 005°25'1 0.7
2016-Jan-09 18:29N 36°06' W 005°24'6 6.4
2016-Jan-09 17:34N 35°60' W 005°24'12 2.8
2016-Jan-09 13:25N 35°52' W 005°34'6 0.8
2016-Jan-09 06:33N 35°57' W 005°31'8 8.4
2016-Jan-09 05:33N 36°03' W 005°23'5 5.3
2016-Jan-09 04:32N 36°08' W 005°25'0 0.0
2016-Jan-09 02:20N 36°08' W 005°25'0 0.0
2016-Jan-09 00:32N 36°08' W 005°25'0 0.0
2016-Jan-08 23:32N 36°08' W 005°25'0 0.0
2016-Jan-08 22:23N 36°08' W 005°25'0 0.0
2016-Jan-08 21:32N 36°08' W 005°25'0 0.0
2016-Jan-08 19:11N 36°08' W 005°25'3 0.3
2016-Jan-08 09:25N 36°10' W 005°23'0 0.0
2016-Jan-08 08:28N 36°10' W 005°23'0 0.0
2016-Jan-08 07:31N 36°10' W 005°23'0 0.0
2016-Jan-08 06:28N 36°10' W 005°23'0 0.1
2016-Jan-08 05:31N 36°10' W 005°23'0 0.0
2016-Jan-08 04:28N 36°10' W 005°23'0 0.0
2016-Jan-08 01:19N 36°10' W 005°23'0 0.1
2016-Jan-08 00:31N 36°10' W 005°23'0 0.0
2016-Jan-07 21:31N 36°10' W 005°23'0 0.0
2016-Jan-07 20:31N 36°10' W 005°23'0 0.0
2016-Jan-07 19:25N 36°10' W 005°23'  
2016-Jan-04 14:09N 36°24' W 002°34'711.9
2016-Jan-04 13:33N 36°25' W 002°25'1311.7
2016-Jan-04 12:25N 36°27' W 002°09'6012.3
2016-Jan-04 07:33N 37°07' W 001°13'1413.6
2016-Jan-04 06:33N 37°16' W 001°00'1313.4
2016-Jan-04 05:33N 37°24' W 000°47'1312.9
2016-Jan-04 04:33N 37°33' W 000°35'1312.9
2016-Jan-04 03:33N 37°43' W 000°26'1313.0
2016-Jan-04 02:33N 37°54' W 000°17'  
Track history (hours):
 
Tides and Currents Weather Stations Pressure Air Temp Water Temp Dewpoint Dewpoint Depression Visibility Wind Speed Wind Dir Waves Ship Positions

Em Athens

Last reported at 2016-Jan-14 02:16 UTC. Time now 2016-Feb-08 12:32 UTC.
Position N 26°36' W 014°52'.
Warning: this ship's position is 25 days out of date.

Length 207 m; draft 10.6 m.

Type: Ship (hazmat cat C). MMSI: 538004019.

Date/timePositionNaut miles runAvg speedWind from/ knotsBaromVisibWave heightAir tempDewpointWater temp
2016-Jan-14 02:16N 26°36' W 014°52'1215.8
2016-Jan-14 01:32N 26°45' W 014°43'1515.1
2016-Jan-14 00:33N 26°58' W 014°36'1514.9
2016-Jan-13 23:32N 27°10' W 014°25'1515.3
2016-Jan-13 22:33N 27°22' W 014°15'1515.3
2016-Jan-13 21:33N 27°34' W 014°04'1615.8
2016-Jan-13 20:33N 27°46' W 013°53'1616.0
2016-Jan-13 19:33N 27°59' W 013°42'1716.3
2016-Jan-13 18:33N 28°11' W 013°30'7515.0
2016-Jan-13 13:33N 29°14' W 012°45'4715.1
2016-Jan-13 10:28N 29°54' W 012°16'1415.3
2016-Jan-13 09:33N 30°05' W 012°07'1615.6
2016-Jan-13 08:33N 30°19' W 011°57'1515.2
2016-Jan-13 07:33N 30°31' W 011°48'1914.9
2016-Jan-13 06:19N 30°47' W 011°36'1114.7
2016-Jan-13 05:33N 30°56' W 011°29'1514.8
2016-Jan-13 04:33N 31°09' W 011°20'1514.9
2016-Jan-13 03:33N 31°21' W 011°10'1514.9
2016-Jan-13 02:34N 31°34' W 011°01'1715.2
2016-Jan-13 01:26N 31°48' W 010°50'36014.5
2016-Jan-12 00:30N 35°57' W 005°36'5 0.2
2016-Jan-10 17:18N 35°56' W 005°30'6 7.8
2016-Jan-10 16:33N 35°60' W 005°24'6 6.2
2016-Jan-10 15:33N 36°01' W 005°17'3 3.3
2016-Jan-10 14:33N 36°01' W 005°13'4 0.8
2016-Jan-10 09:14N 35°57' W 005°11'4 6.4
2016-Jan-10 08:33N 35°57' W 005°17'1010.3
2016-Jan-10 07:33N 35°58' W 005°29'8 8.5
2016-Jan-10 06:34N 36°05' W 005°23'2 0.5
2016-Jan-10 03:28N 36°06' W 005°24'0 0.1
2016-Jan-10 00:31N 36°06' W 005°24'0 0.0
2016-Jan-09 23:31N 36°06' W 005°24'0 0.1
2016-Jan-09 22:31N 36°06' W 005°25'0 0.0
2016-Jan-09 21:31N 36°06' W 005°25'0 0.0
2016-Jan-09 20:31N 36°06' W 005°25'0 0.0
2016-Jan-09 19:31N 36°06' W 005°25'1 0.7
2016-Jan-09 18:29N 36°06' W 005°24'6 6.4
2016-Jan-09 17:34N 35°60' W 005°24'12 2.8
2016-Jan-09 13:25N 35°52' W 005°34'6 0.8
2016-Jan-09 06:33N 35°57' W 005°31'8 8.4
2016-Jan-09 05:33N 36°03' W 005°23'5 5.3
2016-Jan-09 04:32N 36°08' W 005°25'0 0.0
2016-Jan-09 02:20N 36°08' W 005°25'0 0.0
2016-Jan-09 00:32N 36°08' W 005°25'0 0.0
2016-Jan-08 23:32N 36°08' W 005°25'0 0.0
2016-Jan-08 22:23N 36°08' W 005°25'0 0.0
2016-Jan-08 21:32N 36°08' W 005°25'0 0.0
2016-Jan-08 19:11N 36°08' W 005°25'3 0.3
2016-Jan-08 09:25N 36°10' W 005°23'0 0.0
2016-Jan-08 08:28N 36°10' W 005°23'0 0.0
2016-Jan-08 07:31N 36°10' W 005°23'0 0.0
2016-Jan-08 06:28N 36°10' W 005°23'0 0.1
2016-Jan-08 05:31N 36°10' W 005°23'0 0.0
2016-Jan-08 04:28N 36°10' W 005°23'0 0.0
2016-Jan-08 01:19N 36°10' W 005°23'0 0.1
2016-Jan-08 00:31N 36°10' W 005°23'0 0.0
2016-Jan-07 21:31N 36°10' W 005°23'0 0.0
2016-Jan-07 20:31N 36°10' W 005°23'0 0.0
2016-Jan-07 19:25N 36°10' W 005°23'  
2016-Jan-04 14:09N 36°24' W 002°34'711.9
2016-Jan-04 13:33N 36°25' W 002°25'1311.7
2016-Jan-04 12:25N 36°27' W 002°09'6012.3
2016-Jan-04 07:33N 37°07' W 001°13'1413.6
2016-Jan-04 06:33N 37°16' W 001°00'1313.4
2016-Jan-04 05:33N 37°24' W 000°47'1312.9
2016-Jan-04 04:33N 37°33' W 000°35'1312.9
2016-Jan-04 03:33N 37°43' W 000°26'1313.0
2016-Jan-04 02:33N 37°54' W 000°17'  

Dump ship's entire track history